createdAt,value
2023-05-08T00:01:37.130Z,1.48
2023-05-08T00:04:08.240Z,2.03
2023-05-08T00:06:38.420Z,1.40
2023-05-08T00:09:08.522Z,3.10
2023-05-08T00:11:50.335Z,1.70
2023-05-08T00:14:20.899Z,2.58
2023-05-08T00:16:51.491Z,2.22
2023-05-08T00:19:21.640Z,2.13
2023-05-08T00:21:52.892Z,1.63
2023-05-08T00:24:22.783Z,2.13
2023-05-08T00:26:55.078Z,3.00
2023-05-08T00:29:25.072Z,2.33
2023-05-08T00:31:55.393Z,1.80
2023-05-08T00:34:26.100Z,2.92
2023-05-08T00:36:58.738Z,2.85
2023-05-08T00:39:29.166Z,2.83
2023-05-08T00:42:01.410Z,3.28
2023-05-08T00:44:31.752Z,2.97
2023-05-08T00:47:02.072Z,2.45
2023-05-08T00:49:32.571Z,4.30
2023-05-08T00:52:03.120Z,3.83
2023-05-08T00:54:33.641Z,3.55
2023-05-08T00:57:09.244Z,3.47
2023-05-08T00:59:42.534Z,3.47
2023-05-08T01:02:13.427Z,2.80
2023-05-08T01:04:46.036Z,3.75
2023-05-08T01:07:16.491Z,2.72
2023-05-08T01:09:46.631Z,2.75
2023-05-08T01:12:29.631Z,3.30
2023-05-08T01:15:14.089Z,4.07
2023-05-08T01:18:03.116Z,2.80
2023-05-08T01:20:47.346Z,2.75
2023-05-08T01:24:17.287Z,2.53
2023-05-08T01:27:39.503Z,2.63
2023-05-08T01:30:44.555Z,3.28
2023-05-08T01:33:27.246Z,1.98
2023-05-08T01:36:14.368Z,3.35
2023-05-08T01:38:56.634Z,3.13
2023-05-08T01:41:30.898Z,2.80
2023-05-08T01:44:15.838Z,2.63
2023-05-08T01:46:51.637Z,3.72
2023-05-08T01:49:30.828Z,2.80
2023-05-08T01:52:09.418Z,3.95
2023-05-08T01:54:49.484Z,3.20
2023-05-08T01:57:22.299Z,2.72
2023-05-08T01:59:55.891Z,3.22
2023-05-08T02:02:26.657Z,2.85
2023-05-08T02:04:59.869Z,2.55
2023-05-08T02:07:31.042Z,3.22
2023-05-08T02:10:03.833Z,3.10
2023-05-08T02:12:37.121Z,4.78
2023-05-08T02:15:10.216Z,2.55
2023-05-08T02:17:43.861Z,2.40
2023-05-08T02:20:18.803Z,2.72
2023-05-08T02:22:54.188Z,2.13
2023-05-08T02:25:26.149Z,2.75
2023-05-08T02:27:59.007Z,3.42
2023-05-08T02:30:30.870Z,2.30
2023-05-08T02:33:04.816Z,2.08
2023-05-08T02:35:39.296Z,2.03
2023-05-08T02:38:12.953Z,2.13
2023-05-08T02:40:49.898Z,1.98
2023-05-08T02:43:20.335Z,2.45
2023-05-08T02:45:59.983Z,3.55
2023-05-08T02:48:40.178Z,3.05
2023-05-08T02:51:28.649Z,2.00
2023-05-08T02:54:10.658Z,2.15
2023-05-08T02:56:50.642Z,2.45
2023-05-08T02:59:24.318Z,2.25
2023-05-08T03:02:06.597Z,2.00
2023-05-08T03:04:44.167Z,2.60
2023-05-08T03:07:18.560Z,2.55
2023-05-08T03:09:57.850Z,2.10
2023-05-08T03:12:33.362Z,2.00
2023-05-08T03:15:10.210Z,2.13
2023-05-08T03:17:45.289Z,2.60
2023-05-08T03:20:22.108Z,2.47
2023-05-08T03:22:57.628Z,1.90
2023-05-08T03:25:29.824Z,1.80
2023-05-08T03:28:01.808Z,1.98
2023-05-08T03:30:33.349Z,2.00
2023-05-08T03:33:07.857Z,2.88
2023-05-08T03:35:39.323Z,2.75
2023-05-08T03:38:12.433Z,2.03
2023-05-08T03:40:42.955Z,1.80
2023-05-08T03:43:14.590Z,2.25
2023-05-08T03:45:44.529Z,2.35
2023-05-08T03:48:16.727Z,2.08
2023-05-08T03:50:47.855Z,1.77
2023-05-08T03:53:20.558Z,3.20
2023-05-08T03:55:51.441Z,2.78
2023-05-08T03:58:31.210Z,1.88
2023-05-08T04:01:11.342Z,1.88
2023-05-08T04:04:03.952Z,1.85
2023-05-08T04:06:50.197Z,2.17
2023-05-08T04:09:30.704Z,2.15
2023-05-08T04:12:10.590Z,1.83
2023-05-08T04:14:54.865Z,2.63
2023-05-08T04:17:38.734Z,2.03
2023-05-08T04:20:14.619Z,2.55
2023-05-08T04:22:48.874Z,2.78
2023-05-08T04:25:23.763Z,1.63
2023-05-08T04:27:56.635Z,2.20
2023-05-08T04:30:28.278Z,1.67
2023-05-08T04:33:00.365Z,1.58
2023-05-08T04:35:30.287Z,1.83
2023-05-08T04:38:05.938Z,3.17
2023-05-08T04:40:38.312Z,1.65
2023-05-08T04:43:08.689Z,1.45
2023-05-08T04:45:39.010Z,1.50
2023-05-08T04:48:09.708Z,2.70
2023-05-08T04:50:40.443Z,2.80
2023-05-08T04:53:10.881Z,2.05
2023-05-08T04:55:42.662Z,1.88
2023-05-08T04:58:13.649Z,2.00
2023-05-08T05:00:43.474Z,3.13
2023-05-08T05:03:13.656Z,2.30
2023-05-08T05:05:43.534Z,2.22
2023-05-08T05:08:13.563Z,2.25
2023-05-08T05:10:45.715Z,1.73
2023-05-08T05:13:15.846Z,1.60
2023-05-08T05:15:46.108Z,2.38
2023-05-08T05:18:16.461Z,1.70
2023-05-08T05:20:46.946Z,2.15
2023-05-08T05:23:16.693Z,1.50
2023-05-08T05:25:49.212Z,1.38
2023-05-08T05:28:19.355Z,1.55
2023-05-08T05:30:50.694Z,2.33
2023-05-08T05:33:21.000Z,2.00
2023-05-08T05:35:51.373Z,1.42
2023-05-08T05:38:21.753Z,1.52
2023-05-08T05:40:53.633Z,1.77
2023-05-08T05:43:23.451Z,1.25
2023-05-08T05:45:53.653Z,2.55
2023-05-08T05:48:23.344Z,1.60
2023-05-08T05:50:53.483Z,2.88
2023-05-08T05:53:23.553Z,2.45
2023-05-08T05:55:55.634Z,2.28
2023-05-08T05:58:25.602Z,1.65
2023-05-08T06:00:55.652Z,1.60
2023-05-08T06:03:25.770Z,1.33
2023-05-08T06:05:56.429Z,0.90
2023-05-08T06:08:26.672Z,3.53
2023-05-08T06:10:57.989Z,1.50
2023-05-08T06:13:28.343Z,1.10
2023-05-08T06:15:59.418Z,1.35
2023-05-08T06:18:29.684Z,1.35
2023-05-08T06:21:00.701Z,1.27
2023-05-08T06:23:31.412Z,0.95
2023-05-08T06:26:03.620Z,0.80
2023-05-08T06:28:33.402Z,1.52
2023-05-08T06:31:04.065Z,1.90
2023-05-08T06:33:34.413Z,1.17
2023-05-08T06:36:06.542Z,0.98
2023-05-08T06:38:36.851Z,1.40
2023-05-08T06:41:08.877Z,1.23
2023-05-08T06:43:38.568Z,1.05
2023-05-08T06:46:09.106Z,1.10
2023-05-08T06:48:39.240Z,1.35
2023-05-08T06:51:09.645Z,1.58
2023-05-08T06:53:39.843Z,1.10
2023-05-08T06:56:12.566Z,1.13
2023-05-08T06:58:42.721Z,1.55
2023-05-08T07:01:15.455Z,1.27
2023-05-08T07:03:45.489Z,1.30
2023-05-08T07:06:15.376Z,1.73
2023-05-08T07:08:45.932Z,1.70
2023-05-08T07:11:17.828Z,0.93
2023-05-08T07:13:48.659Z,1.02
2023-05-08T07:16:19.596Z,1.00
2023-05-08T07:18:50.061Z,1.00
2023-05-08T07:21:21.701Z,1.13
2023-05-08T07:23:54.350Z,1.48
2023-05-08T07:26:26.294Z,1.20
2023-05-08T07:28:56.349Z,1.05
2023-05-08T07:31:27.562Z,1.00
2023-05-08T07:33:57.071Z,1.60
2023-05-08T07:36:27.325Z,1.08
2023-05-08T07:38:57.472Z,1.17
2023-05-08T07:41:29.611Z,1.38
2023-05-08T07:44:00.374Z,2.15
2023-05-08T07:46:30.481Z,1.23
2023-05-08T07:49:01.173Z,1.33
2023-05-08T07:51:32.137Z,1.20
2023-05-08T07:54:02.559Z,0.77
2023-05-08T07:56:34.449Z,0.93
2023-05-08T07:59:04.994Z,1.05
2023-05-08T08:01:35.010Z,1.17
2023-05-08T08:04:04.909Z,0.98
2023-05-08T08:06:35.559Z,1.45
2023-05-08T08:09:05.945Z,0.90
2023-05-08T08:11:37.568Z,0.90
2023-05-08T08:14:08.801Z,1.20
2023-05-08T08:16:39.276Z,1.27
2023-05-08T08:19:09.531Z,1.85
2023-05-08T08:21:44.435Z,0.80
2023-05-08T08:24:14.396Z,0.93
2023-05-08T08:26:46.156Z,1.42
2023-05-08T08:29:16.460Z,0.95
2023-05-08T08:31:46.777Z,1.30
2023-05-08T08:34:16.894Z,1.33
2023-05-08T08:36:47.120Z,1.10
2023-05-08T08:39:17.211Z,0.95
2023-05-08T08:41:48.676Z,1.52
2023-05-08T08:44:18.968Z,0.85
2023-05-08T08:46:54.971Z,0.93
2023-05-08T08:49:33.228Z,1.00
2023-05-08T08:52:09.639Z,1.20
2023-05-08T08:54:42.840Z,0.85
2023-05-08T08:57:17.531Z,1.08
2023-05-08T08:59:48.525Z,1.02
2023-05-08T09:02:21.229Z,0.98
2023-05-08T09:04:53.151Z,1.23
2023-05-08T09:07:24.791Z,0.90
2023-05-08T09:09:56.617Z,0.95
2023-05-08T09:12:28.626Z,0.90
2023-05-08T09:14:59.124Z,1.40
2023-05-08T09:17:30.027Z,0.90
2023-05-08T09:20:01.414Z,1.08
2023-05-08T09:22:33.746Z,0.95
2023-05-08T09:25:03.896Z,0.90
2023-05-08T09:27:36.777Z,1.58
2023-05-08T09:30:08.924Z,1.13
2023-05-08T09:32:41.635Z,1.25
2023-05-08T09:35:14.142Z,1.48
2023-05-08T09:37:45.342Z,0.88
2023-05-08T09:40:20.197Z,0.88
2023-05-08T09:42:53.083Z,0.73
2023-05-08T09:45:36.087Z,1.10
2023-05-08T09:48:07.036Z,1.00
2023-05-08T09:50:36.916Z,0.95
2023-05-08T09:53:07.227Z,0.73
2023-05-08T09:55:51.260Z,1.02
2023-05-08T09:58:25.382Z,0.80
2023-05-08T10:00:55.759Z,1.85
2023-05-08T10:03:48.890Z,0.65
2023-05-08T10:06:19.744Z,0.73
2023-05-08T10:08:50.132Z,0.93
2023-05-08T10:11:22.954Z,1.65
2023-05-08T10:13:55.844Z,0.85
2023-05-08T10:16:27.365Z,0.82
2023-05-08T10:19:03.433Z,0.70
2023-05-08T10:21:38.799Z,1.23
2023-05-08T10:24:17.626Z,0.75
2023-05-08T10:27:07.761Z,0.70
2023-05-08T10:29:51.456Z,0.90
2023-05-08T10:32:24.726Z,1.30
2023-05-08T10:35:01.231Z,0.70
2023-05-08T10:37:33.024Z,1.08
2023-05-08T10:40:04.986Z,0.77
2023-05-08T10:42:37.170Z,1.15
2023-05-08T10:45:11.780Z,0.75
2023-05-08T10:48:05.846Z,0.80
2023-05-08T10:50:52.572Z,0.75
2023-05-08T10:53:37.953Z,1.13
2023-05-08T10:56:08.570Z,1.63
2023-05-08T10:58:41.030Z,0.85
2023-05-08T11:01:20.376Z,0.85
2023-05-08T11:03:56.324Z,0.57
2023-05-08T11:06:49.519Z,0.77
2023-05-08T11:09:24.892Z,0.70
2023-05-08T11:12:21.495Z,1.02
2023-05-08T11:15:04.433Z,0.77
2023-05-08T11:17:36.527Z,1.17
2023-05-08T11:20:08.781Z,1.77
2023-05-08T11:22:39.726Z,1.75
2023-05-08T11:25:13.116Z,1.05
2023-05-08T11:28:14.380Z,0.80
2023-05-08T11:30:47.160Z,1.13
2023-05-08T11:33:20.137Z,1.30
2023-05-08T11:35:57.038Z,1.00
2023-05-08T11:38:34.497Z,1.40
2023-05-08T11:41:10.120Z,0.60
2023-05-08T11:44:21.071Z,0.85
2023-05-08T11:46:56.168Z,0.93
2023-05-08T11:49:30.339Z,1.15
2023-05-08T11:52:05.119Z,0.60
2023-05-08T11:54:35.580Z,0.80
2023-05-08T11:57:06.237Z,0.57
2023-05-08T11:59:39.515Z,1.05
2023-05-08T12:02:10.746Z,1.20
2023-05-08T12:04:53.532Z,1.48
2023-05-08T12:07:24.638Z,1.15
2023-05-08T12:09:55.159Z,1.05
2023-05-08T12:12:25.715Z,1.42
2023-05-08T12:14:57.422Z,1.67
2023-05-08T12:17:27.512Z,1.60
2023-05-08T12:20:11.738Z,0.80
2023-05-08T12:22:42.412Z,2.10
2023-05-08T12:25:14.460Z,0.80
2023-05-08T12:27:46.495Z,0.88
2023-05-08T12:30:19.016Z,1.08
2023-05-08T12:32:50.662Z,1.08
2023-05-08T12:35:28.421Z,0.65
2023-05-08T12:38:04.922Z,0.80
2023-05-08T12:40:37.317Z,0.82
2023-05-08T12:43:07.844Z,0.90
2023-05-08T12:45:41.221Z,0.80
2023-05-08T12:48:13.207Z,1.38
2023-05-08T12:50:47.763Z,0.90
2023-05-08T12:53:22.019Z,0.73
2023-05-08T12:55:58.027Z,0.90
2023-05-08T12:58:30.316Z,0.90
2023-05-08T13:01:15.803Z,1.00
2023-05-08T13:03:50.743Z,0.77
2023-05-08T13:06:28.326Z,1.20
2023-05-08T13:08:58.770Z,1.10
2023-05-08T13:11:33.581Z,1.90
2023-05-08T13:14:03.637Z,0.80
2023-05-08T13:16:44.060Z,0.90
2023-05-08T13:19:15.065Z,0.95
2023-05-08T13:21:48.329Z,1.80
2023-05-08T13:24:19.217Z,1.02
2023-05-08T13:26:49.623Z,0.70
2023-05-08T13:29:19.651Z,1.00
2023-05-08T13:31:49.944Z,1.00
2023-05-08T13:34:20.318Z,0.85
2023-05-08T13:36:52.654Z,1.00
2023-05-08T13:39:22.826Z,1.63
2023-05-08T13:41:53.290Z,1.10
2023-05-08T13:44:23.501Z,0.90
2023-05-08T13:46:54.204Z,0.95
2023-05-08T13:49:24.683Z,1.15
2023-05-08T13:51:57.408Z,1.38
2023-05-08T13:54:28.287Z,2.05
2023-05-08T13:56:58.464Z,1.02
2023-05-08T13:59:31.750Z,1.13
2023-05-08T14:02:03.126Z,1.02
2023-05-08T14:04:33.490Z,1.30
2023-05-08T14:07:05.891Z,1.40
2023-05-08T14:09:36.506Z,1.20
2023-05-08T14:12:06.704Z,1.08
2023-05-08T14:14:37.163Z,1.67
2023-05-08T14:17:08.961Z,0.90
2023-05-08T14:19:39.218Z,1.10
2023-05-08T14:22:11.468Z,1.50
2023-05-08T14:24:42.143Z,1.15
2023-05-08T14:27:12.524Z,1.33
2023-05-08T14:29:43.107Z,1.10
2023-05-08T14:32:12.840Z,1.33
2023-05-08T14:34:42.760Z,1.15
2023-05-08T14:37:15.127Z,0.90
2023-05-08T14:39:45.846Z,1.10
2023-05-08T14:42:22.957Z,1.40
2023-05-08T14:44:56.174Z,1.23
2023-05-08T14:47:26.179Z,1.17
2023-05-08T14:49:57.101Z,1.27
2023-05-08T14:52:29.264Z,1.20
2023-05-08T14:54:59.663Z,1.10
2023-05-08T14:57:29.291Z,1.70
2023-05-08T14:59:59.601Z,1.92
2023-05-08T15:02:29.953Z,1.60
2023-05-08T15:05:00.560Z,1.60
2023-05-08T15:07:33.114Z,1.30
2023-05-08T15:10:03.387Z,1.58
2023-05-08T15:12:33.242Z,1.52
2023-05-08T15:15:04.680Z,1.27
2023-05-08T15:17:36.842Z,1.38
2023-05-08T15:20:07.939Z,1.23
2023-05-08T15:22:39.901Z,1.65
2023-05-08T15:25:12.498Z,1.63
2023-05-08T15:27:43.679Z,1.52
2023-05-08T15:30:15.561Z,2.05
2023-05-08T15:32:46.298Z,1.58
2023-05-08T15:35:16.629Z,1.23
2023-05-08T15:37:49.611Z,1.73
2023-05-08T15:40:19.773Z,1.17
2023-05-08T15:42:50.235Z,1.15
2023-05-08T15:45:20.556Z,1.50
2023-05-08T15:47:50.213Z,1.67
2023-05-08T15:50:20.538Z,1.70
2023-05-08T15:52:52.864Z,1.65
2023-05-08T15:55:23.553Z,2.05
2023-05-08T15:57:53.947Z,1.60
2023-05-08T16:00:27.359Z,2.03
2023-05-08T16:03:00.468Z,1.73
2023-05-08T16:05:30.702Z,1.50
2023-05-08T16:08:03.011Z,1.38
2023-05-08T16:10:33.414Z,1.50
2023-05-08T16:13:03.697Z,1.60
2023-05-08T16:15:34.220Z,1.50
2023-05-08T16:18:04.505Z,1.60
2023-05-08T16:20:36.246Z,1.40
2023-05-08T16:23:08.577Z,1.98
2023-05-08T16:25:38.934Z,1.60
2023-05-08T16:28:09.230Z,1.88
2023-05-08T16:30:39.507Z,1.25
2023-05-08T16:33:09.912Z,1.38
2023-05-08T16:35:41.336Z,1.73
2023-05-08T16:38:14.232Z,1.50
2023-05-08T16:40:45.383Z,1.67
2023-05-08T16:43:15.329Z,1.77
2023-05-08T16:45:45.417Z,1.83
2023-05-08T16:48:15.828Z,1.80
2023-05-08T16:50:46.211Z,1.85
2023-05-08T16:53:17.859Z,1.75
2023-05-08T16:55:48.158Z,3.58
2023-05-08T16:58:18.534Z,1.70
2023-05-08T17:00:48.275Z,1.67
2023-05-08T17:03:18.518Z,1.70
2023-05-08T17:05:49.135Z,1.90
2023-05-08T17:08:21.022Z,1.88
2023-05-08T17:10:51.928Z,1.85
2023-05-08T17:13:23.991Z,1.83
2023-05-08T17:15:54.415Z,1.88
2023-05-08T17:18:24.882Z,1.85
2023-05-08T17:20:54.561Z,2.08
2023-05-08T17:23:26.458Z,2.08
2023-05-08T17:26:00.717Z,1.67
2023-05-08T17:28:30.697Z,1.80
2023-05-08T17:31:00.287Z,1.70
2023-05-08T17:33:30.013Z,1.73
2023-05-08T17:36:00.572Z,1.65
2023-05-08T17:38:32.404Z,2.28
2023-05-08T17:41:02.599Z,1.40
2023-05-08T17:43:32.746Z,1.65
2023-05-08T17:46:02.593Z,1.65
2023-05-08T17:48:32.977Z,1.60
2023-05-08T17:51:03.822Z,1.70
2023-05-08T17:53:35.694Z,1.70
2023-05-08T17:56:05.972Z,1.42
2023-05-08T17:58:36.327Z,1.65
2023-05-08T18:01:06.630Z,1.60
2023-05-08T18:03:36.529Z,2.00
2023-05-08T18:06:07.176Z,2.05
2023-05-08T18:08:41.460Z,1.73
2023-05-08T18:11:19.764Z,1.85
2023-05-08T18:13:49.760Z,1.70
2023-05-08T18:16:22.187Z,1.52
2023-05-08T18:18:52.937Z,1.65
2023-05-08T18:21:22.600Z,1.63
2023-05-08T18:23:53.846Z,1.80
2023-05-08T18:26:24.293Z,1.60
2023-05-08T18:28:54.719Z,1.73
2023-05-08T18:31:24.500Z,1.63
2023-05-08T18:33:54.528Z,1.63
2023-05-08T18:36:24.278Z,1.80
2023-05-08T18:38:56.628Z,1.65
2023-05-08T18:41:26.354Z,2.00
2023-05-08T18:43:56.788Z,2.10
2023-05-08T18:46:26.898Z,2.10
2023-05-08T18:48:56.588Z,1.92
2023-05-08T18:51:26.539Z,2.08
2023-05-08T18:53:58.813Z,1.88
2023-05-08T18:56:29.252Z,1.85
2023-05-08T18:59:00.415Z,1.90
2023-05-08T19:01:30.225Z,2.00
2023-05-08T19:04:01.275Z,1.95
2023-05-08T19:06:31.856Z,1.95
2023-05-08T19:09:03.589Z,2.28
2023-05-08T19:11:33.975Z,2.17
2023-05-08T19:14:04.483Z,2.42
2023-05-08T19:16:34.770Z,2.40
2023-05-08T19:19:05.025Z,2.35
2023-05-08T19:21:35.628Z,2.55
2023-05-08T19:24:08.850Z,2.80
2023-05-08T19:26:39.196Z,2.28
2023-05-08T19:29:09.671Z,2.40
2023-05-08T19:31:40.178Z,2.50
2023-05-08T19:34:10.270Z,2.55
2023-05-08T19:36:40.688Z,2.65
2023-05-08T19:39:11.971Z,2.50
2023-05-08T19:41:43.748Z,2.58
2023-05-08T19:44:14.377Z,2.75
2023-05-08T19:46:44.959Z,2.80
2023-05-08T19:49:16.568Z,3.42
2023-05-08T19:51:48.672Z,2.42
2023-05-08T19:54:21.090Z,2.47
2023-05-08T19:56:51.109Z,2.20
2023-05-08T19:59:21.501Z,2.90
2023-05-08T20:01:51.274Z,2.60
2023-05-08T20:04:21.937Z,3.55
2023-05-08T20:06:51.782Z,3.13
2023-05-08T20:09:23.660Z,2.88
2023-05-08T20:11:55.688Z,2.70
2023-05-08T20:14:26.051Z,2.75
2023-05-08T20:16:56.326Z,2.50
2023-05-08T20:19:26.678Z,2.50
2023-05-08T20:21:56.628Z,2.80
2023-05-08T20:24:28.475Z,2.40
2023-05-08T20:26:58.444Z,2.63
2023-05-08T20:29:29.066Z,3.13
2023-05-08T20:31:59.386Z,3.05
2023-05-08T20:34:30.348Z,2.80
2023-05-08T20:37:01.311Z,2.67
2023-05-08T20:39:33.523Z,2.65
2023-05-08T20:42:03.732Z,2.70
2023-05-08T20:44:34.155Z,2.47
2023-05-08T20:47:03.876Z,2.70
2023-05-08T20:49:34.372Z,2.67
2023-05-08T20:52:05.857Z,3.00
2023-05-08T20:54:38.014Z,2.85
2023-05-08T20:57:08.722Z,2.88
2023-05-08T20:59:39.244Z,3.20
2023-05-08T21:02:09.949Z,2.97
2023-05-08T21:04:40.622Z,4.22
2023-05-08T21:07:10.734Z,2.85
2023-05-08T21:09:43.167Z,3.13
2023-05-08T21:12:13.481Z,2.55
2023-05-08T21:14:44.615Z,2.83
2023-05-08T21:17:14.564Z,3.33
2023-05-08T21:19:44.800Z,3.00
2023-05-08T21:22:15.173Z,2.80
2023-05-08T21:24:48.276Z,2.78
2023-05-08T21:27:18.502Z,2.72
2023-05-08T21:29:48.820Z,3.13
2023-05-08T21:32:19.210Z,2.85
2023-05-08T21:34:49.037Z,2.63
2023-05-08T21:37:19.104Z,2.92
2023-05-08T21:39:50.873Z,2.60
2023-05-08T21:42:21.023Z,2.83
2023-05-08T21:44:51.034Z,2.30
2023-05-08T21:47:22.957Z,2.75
2023-05-08T21:49:52.726Z,2.83
2023-05-08T21:52:23.848Z,2.40
2023-05-08T21:54:55.947Z,2.65
2023-05-08T21:57:26.174Z,2.75
2023-05-08T21:59:56.604Z,2.58
2023-05-08T22:02:26.583Z,2.80
2023-05-08T22:04:57.002Z,2.75
2023-05-08T22:07:27.457Z,2.53
2023-05-08T22:10:00.325Z,3.72
2023-05-08T22:12:30.621Z,2.65
2023-05-08T22:15:00.886Z,2.65
2023-05-08T22:17:31.123Z,3.05
2023-05-08T22:20:01.016Z,2.70
2023-05-08T22:22:31.481Z,2.97
2023-05-08T22:25:03.490Z,3.40
2023-05-08T22:27:33.862Z,3.13
2023-05-08T22:30:03.757Z,3.30
2023-05-08T22:32:33.934Z,3.33
2023-05-08T22:35:03.933Z,3.78
2023-05-08T22:37:34.057Z,3.72
2023-05-08T22:40:05.910Z,3.78
2023-05-08T22:42:36.680Z,3.70
2023-05-08T22:45:07.804Z,3.67
2023-05-08T22:47:38.440Z,3.65
2023-05-08T22:50:10.086Z,3.63
2023-05-08T22:52:41.373Z,3.83
2023-05-08T22:55:15.941Z,3.80
2023-05-08T22:57:46.270Z,3.67
2023-05-08T23:00:18.245Z,3.53
2023-05-08T23:02:48.614Z,3.83
2023-05-08T23:05:18.801Z,3.40
2023-05-08T23:07:48.927Z,3.78
2023-05-08T23:10:20.830Z,3.35
2023-05-08T23:12:50.947Z,3.33
2023-05-08T23:15:21.709Z,3.25
2023-05-08T23:17:52.424Z,3.65
2023-05-08T23:20:22.929Z,3.58
2023-05-08T23:22:52.997Z,3.67
2023-05-08T23:25:24.921Z,3.42
2023-05-08T23:27:55.247Z,2.95
2023-05-08T23:30:25.626Z,2.83
2023-05-08T23:32:55.569Z,3.08
2023-05-08T23:35:25.915Z,2.88
2023-05-08T23:37:56.214Z,3.22
2023-05-08T23:40:28.590Z,2.85
2023-05-08T23:42:58.474Z,2.97
2023-05-08T23:45:28.777Z,3.03
2023-05-08T23:47:58.882Z,3.10
2023-05-08T23:50:29.235Z,2.90
2023-05-08T23:52:59.416Z,3.15
2023-05-08T23:55:31.917Z,2.72
2023-05-08T23:58:02.306Z,3.38
